Observations for RIMINI CIV IT-AFB, Italy (LIPR)

LIPR 260450Z AUTO 22005KT 9999 NCD 21/18 Q1017  
LIPR 260420Z AUTO 24003KT 9999 NCD 21/18 Q1017  
LIPR 260350Z AUTO 24003KT 9999 NCD 20/18 Q1016  
LIPR 260320Z AUTO 22005KT 9999 NCD 20/18 Q1016  
LIPR 260250Z AUTO 21003KT 9999 NCD 20/18 Q1016  
LIPR 260220Z AUTO 22003KT 9999 NCD 20/18 Q1016  
LIPR 260150Z AUTO 19003KT 9999 NCD 20/18 Q1016  
LIPR 260120Z AUTO 20003KT 9999 NCD 20/18 Q1016  
LIPR 260050Z AUTO 19003KT 9999 NCD 21/18 Q1016  
LIPR 260020Z AUTO 21003KT 9999 NCD 21/18 Q1017  
LIPR 252350Z AUTO 21002KT 9999 NCD 21/18 Q1017  
LIPR 252320Z AUTO 21003KT 9999 NCD 21/18 Q1017  
LIPR 252250Z AUTO 18003KT 9999 NCD 21/19 Q1017  
LIPR 252220Z AUTO 18002KT 9999 NCD 22/18 Q1017  
LIPR 252150Z AUTO 20003KT 9999 NCD 22/19 Q1017  
LIPR 252120Z AUTO 23002KT 9999 NCD 22/19 Q1017  
LIPR 252050Z 20004KT CAVOK 23/19 Q1017  
LIPR 252020Z 19003KT CAVOK 23/20 Q1017  
LIPR 251950Z 18002KT CAVOK 23/20 Q1017  
LIPR 251920Z VRB01KT CAVOK 23/20 Q1017  
LIPR 251850Z VRB01KT CAVOK 24/20 Q1017  
LIPR 251820Z 13002KT CAVOK 25/20 Q1017  
LIPR 251750Z VRB01KT CAVOK 26/20 Q1016  
LIPR 251720Z 12002KT CAVOK 26/21 Q1016  
LIPR 251650Z 10003KT 060V130 CAVOK 26/21 Q1016  
LIPR 251620Z 08004KT 040V110 CAVOK 27/21 Q1016  
LIPR 251550Z 05005KT CAVOK 27/21 Q1016  
LIPR 251520Z 04005KT 360V070 CAVOK 27/20 Q1016  
LIPR 251450Z 03007KT CAVOK 27/20 Q1016  
LIPR 251420Z 03007KT 360V060 CAVOK 27/20 Q1016  
LIPR 251350Z 02007KT 350V050 CAVOK 27/21 Q1016  
LIPR 251320Z 01008KT 340V040 CAVOK 27/21 Q1016  
LIPR 251250Z 01009KT CAVOK 27/20 Q1017  
LIPR 251220Z 36009KT 330V030 CAVOK 27/20 Q1017  
LIPR 251150Z 36009KT 310V020 CAVOK 27/20 Q1017  
LIPR 251120Z 35010KT CAVOK 27/20 Q1017  
LIPR 251050Z 35010KT CAVOK 26/19 Q1017  
LIPR 251020Z 34008KT 300V020 CAVOK 27/21 Q1017  
LIPR 250950Z 32006KT 270V360 CAVOK 27/19 Q1018  
LIPR 250920Z 29008KT CAVOK 26/19 Q1018  
LIPR 250850Z 28009KT CAVOK 26/19 Q1018  
LIPR 250820Z 28010KT CAVOK 25/19 Q1018  
LIPR 250750Z 28009KT 9999 FEW025 24/18 Q1018
LIPR 250720Z 28009KT 9999 FEW025 24/18 Q1018
LIPR 250650Z 28008KT CAVOK 24/18 Q1017  
LIPR 250620Z 28008KT CAVOK 24/18 Q1017  
LIPR 250550Z 27008KT CAVOK 23/18 Q1017  
LIPR 250520Z 27007KT CAVOK 23/18 Q1017  
LIPR 250450Z AUTO 27007KT 9999 FEW016/// BKN160/// 23/18 Q1017  
LIPR 250450Z AUTO 27007KT 9999 FEW016 BKN160 23/18 Q1017
LIPR 250420Z AUTO 27008KT 9999 FEW017/// BKN150/// 23/18 Q1017  
LIPR 250420Z AUTO 27008KT 9999 FEW017 BKN150 23/18 Q1017